createdAt,value
2023-12-31T00:02:22.120Z,99932.84
2023-12-31T00:05:25.151Z,99942.34
2023-12-31T00:08:28.375Z,99940.03
2023-12-31T00:11:31.382Z,99929.72
2023-12-31T00:14:35.790Z,99929.44
2023-12-31T00:17:38.996Z,99931.56
2023-12-31T00:20:42.098Z,99921.16
2023-12-31T00:23:45.831Z,99922.53
2023-12-31T00:26:49.426Z,99912.47
2023-12-31T00:29:53.807Z,99907.28
2023-12-31T00:32:56.971Z,99898.72
2023-12-31T00:36:00.113Z,99897.50
2023-12-31T00:39:03.340Z,99896.69
2023-12-31T00:42:07.675Z,99900.16
2023-12-31T00:45:12.255Z,99886.69
2023-12-31T00:48:15.416Z,99876.34
2023-12-31T00:51:18.451Z,99875.25
2023-12-31T00:54:21.577Z,99874.19
2023-12-31T00:57:24.572Z,99873.09
2023-12-31T01:00:29.135Z,99876.38
2023-12-31T01:03:34.323Z,99869.78
2023-12-31T01:06:38.421Z,99873.38
2023-12-31T01:09:41.568Z,99872.66
2023-12-31T01:12:44.620Z,99868.59
2023-12-31T01:15:49.220Z,99870.47
2023-12-31T01:18:52.229Z,99870.84
2023-12-31T01:21:56.381Z,99883.97
2023-12-31T01:24:59.419Z,99889.44
2023-12-31T01:28:03.892Z,99887.53
2023-12-31T01:31:08.279Z,99886.03
2023-12-31T01:34:11.614Z,99893.59
2023-12-31T01:37:16.208Z,99891.13
2023-12-31T01:40:19.517Z,99883.50
2023-12-31T01:43:23.218Z,99884.03
2023-12-31T01:46:31.007Z,99884.75
2023-12-31T01:49:35.101Z,99883.47
2023-12-31T01:52:38.925Z,99887.72
2023-12-31T01:55:42.430Z,99885.84
2023-12-31T01:58:46.510Z,99885.22
2023-12-31T02:01:56.660Z,99872.94
2023-12-31T02:05:01.102Z,99867.31
2023-12-31T02:08:05.540Z,99866.09
2023-12-31T02:11:11.510Z,99866.44
2023-12-31T02:14:14.537Z,99855.63
2023-12-31T02:17:18.996Z,99851.91
2023-12-31T02:20:23.251Z,99847.94
2023-12-31T02:23:26.924Z,99840.13
2023-12-31T02:26:32.052Z,99831.66
2023-12-31T02:29:35.093Z,99824.00
2023-12-31T02:32:38.144Z,99807.34
2023-12-31T02:35:42.206Z,99799.91
2023-12-31T02:38:45.237Z,99790.59
2023-12-31T02:41:49.584Z,99784.53
2023-12-31T02:44:52.735Z,99765.50
2023-12-31T02:47:55.991Z,99767.50
2023-12-31T02:50:59.041Z,99763.00
2023-12-31T02:54:02.150Z,99761.59
2023-12-31T02:57:08.204Z,99746.97
2023-12-31T03:00:12.856Z,99727.09
2023-12-31T03:03:16.568Z,99719.44
2023-12-31T03:06:20.008Z,99707.00
2023-12-31T03:09:23.343Z,99709.59
2023-12-31T03:12:28.919Z,99682.75
2023-12-31T03:15:31.927Z,99684.03
2023-12-31T03:18:35.835Z,99665.28
2023-12-31T03:21:38.975Z,99651.50
2023-12-31T03:24:45.217Z,99655.72
2023-12-31T03:27:49.503Z,99652.03
2023-12-31T03:30:52.577Z,99642.47
2023-12-31T03:33:55.790Z,99653.00
2023-12-31T03:36:58.830Z,99652.50
2023-12-31T03:40:02.049Z,99642.41
2023-12-31T03:43:07.820Z,99625.69
2023-12-31T03:46:10.916Z,99608.81
2023-12-31T03:49:15.241Z,99594.09
2023-12-31T03:52:18.396Z,99583.63
2023-12-31T03:55:21.929Z,99585.81
2023-12-31T03:58:27.169Z,99573.78
2023-12-31T04:01:30.730Z,99567.53
2023-12-31T04:04:33.881Z,99556.31
2023-12-31T04:07:37.383Z,99553.03
2023-12-31T04:10:40.531Z,99550.16
2023-12-31T04:13:45.125Z,99541.16
2023-12-31T04:16:48.190Z,99536.09
2023-12-31T04:19:51.395Z,99533.88
2023-12-31T04:22:54.525Z,99531.75
2023-12-31T04:25:57.954Z,99520.75
2023-12-31T04:29:02.320Z,99509.97
2023-12-31T04:32:06.269Z,99498.31
2023-12-31T04:35:10.088Z,99488.94
2023-12-31T04:38:13.098Z,99484.63
2023-12-31T04:41:23.702Z,99488.19
2023-12-31T04:44:28.106Z,99482.53
2023-12-31T04:47:31.573Z,99483.41
2023-12-31T04:50:34.703Z,99468.25
2023-12-31T04:53:39.012Z,99476.06
2023-12-31T04:56:42.356Z,99469.44
2023-12-31T04:59:47.359Z,99460.81
2023-12-31T05:02:50.421Z,99449.41
2023-12-31T05:05:53.413Z,99438.78
2023-12-31T05:08:56.503Z,99427.81
2023-12-31T05:11:59.522Z,99417.16
2023-12-31T05:15:03.893Z,99408.28
2023-12-31T05:18:08.015Z,99403.13
2023-12-31T05:21:11.358Z,99404.16
2023-12-31T05:24:14.764Z,99386.84
2023-12-31T05:27:19.005Z,99374.78
2023-12-31T05:30:23.738Z,99378.81
2023-12-31T05:33:26.873Z,99374.19
2023-12-31T05:36:29.880Z,99367.72
2023-12-31T05:39:32.897Z,99353.91
2023-12-31T05:42:35.860Z,99350.22
2023-12-31T05:45:40.270Z,99343.22
2023-12-31T05:48:43.472Z,99329.41
2023-12-31T05:51:46.568Z,99330.84
2023-12-31T05:54:50.583Z,99322.19
2023-12-31T05:57:53.695Z,99311.66
2023-12-31T06:00:59.582Z,99307.16
2023-12-31T06:04:02.679Z,99297.44
2023-12-31T06:07:07.825Z,99301.88
2023-12-31T06:10:11.494Z,99286.41
2023-12-31T06:13:15.010Z,99291.38
2023-12-31T06:16:19.442Z,99281.91
2023-12-31T06:19:22.545Z,99286.22
2023-12-31T06:22:27.963Z,99276.81
2023-12-31T06:25:31.081Z,99278.25
2023-12-31T06:28:35.021Z,99278.91
2023-12-31T06:31:39.461Z,99281.25
2023-12-31T06:34:42.617Z,99288.78
2023-12-31T06:37:45.725Z,99291.88
2023-12-31T06:40:48.855Z,99294.34
2023-12-31T06:43:51.983Z,99299.28
2023-12-31T06:46:56.401Z,99282.91
2023-12-31T06:49:59.871Z,99290.44
2023-12-31T06:53:03.434Z,99300.50
2023-12-31T06:56:07.616Z,99289.38
2023-12-31T06:59:10.567Z,99283.09
2023-12-31T07:02:15.087Z,99288.13
2023-12-31T07:05:18.127Z,99285.56
2023-12-31T07:08:21.896Z,99281.09
2023-12-31T07:11:25.118Z,99283.47
2023-12-31T07:14:28.132Z,99278.09
2023-12-31T07:17:32.493Z,99276.97
2023-12-31T07:20:35.592Z,99281.91
2023-12-31T07:23:41.475Z,99273.94
2023-12-31T07:26:44.526Z,99274.69
2023-12-31T07:29:47.730Z,99282.50
2023-12-31T07:32:52.451Z,99290.03
2023-12-31T07:35:55.686Z,99273.63
2023-12-31T07:38:58.700Z,99276.09
2023-12-31T07:42:01.687Z,99279.41
2023-12-31T07:45:09.460Z,99277.41
2023-12-31T07:48:14.234Z,99272.88
2023-12-31T07:51:17.472Z,99278.84
2023-12-31T07:54:20.439Z,99280.41
2023-12-31T07:57:25.841Z,99287.91
2023-12-31T08:00:28.905Z,99280.28
2023-12-31T08:03:33.408Z,99290.50
2023-12-31T08:06:37.644Z,99294.63
2023-12-31T08:09:41.789Z,99291.00
2023-12-31T08:12:51.214Z,99279.53
2023-12-31T08:15:55.446Z,99288.22
2023-12-31T08:19:02.097Z,99293.97
2023-12-31T08:22:05.504Z,99296.22
2023-12-31T08:25:09.244Z,99294.13
2023-12-31T08:28:12.357Z,99296.19
2023-12-31T08:31:16.365Z,99301.13
2023-12-31T08:34:20.897Z,99305.25
2023-12-31T08:37:24.498Z,99306.66
2023-12-31T08:40:27.881Z,99299.63
2023-12-31T08:43:30.932Z,99309.22
2023-12-31T08:46:34.167Z,99309.72
2023-12-31T08:49:39.849Z,99312.19
2023-12-31T08:52:48.266Z,99316.94
2023-12-31T08:55:52.784Z,99317.31
2023-12-31T08:58:55.953Z,99334.25
2023-12-31T09:01:59.097Z,99343.50
2023-12-31T09:05:05.813Z,99350.00
2023-12-31T09:08:08.918Z,99352.91
2023-12-31T09:11:11.932Z,99365.13
2023-12-31T09:14:14.974Z,99365.59
2023-12-31T09:17:18.229Z,99377.88
2023-12-31T09:20:27.557Z,99384.22
2023-12-31T09:23:32.813Z,99394.09
2023-12-31T09:26:35.864Z,99407.41
2023-12-31T09:29:39.265Z,99422.38
2023-12-31T09:32:44.077Z,99423.06
2023-12-31T09:35:48.564Z,99433.91
2023-12-31T09:38:51.929Z,99444.03
2023-12-31T09:41:55.822Z,99462.00
2023-12-31T09:45:00.565Z,99478.13
2023-12-31T09:48:04.457Z,99492.81
2023-12-31T09:51:09.237Z,99505.41
2023-12-31T09:54:13.321Z,99508.72
2023-12-31T09:57:21.200Z,99528.47
2023-12-31T10:00:25.799Z,99536.94
2023-12-31T10:03:32.113Z,99553.41
2023-12-31T10:06:37.099Z,99570.47
2023-12-31T10:09:41.925Z,99577.78
2023-12-31T10:12:49.332Z,99573.44
2023-12-31T10:15:57.720Z,99583.78
2023-12-31T10:19:01.373Z,99595.56
2023-12-31T10:22:09.985Z,99603.09
2023-12-31T10:25:18.041Z,99612.31
2023-12-31T10:28:23.859Z,99616.22
2023-12-31T10:31:27.590Z,99623.84
2023-12-31T10:34:30.695Z,99629.72
2023-12-31T10:37:37.428Z,99631.28
2023-12-31T10:40:42.149Z,99625.78
2023-12-31T10:43:49.846Z,99633.31
2023-12-31T10:46:54.810Z,99638.28
2023-12-31T10:49:59.603Z,99650.06
2023-12-31T10:53:08.903Z,99647.34
2023-12-31T10:56:14.099Z,99646.19
2023-12-31T10:59:18.783Z,99643.84
2023-12-31T11:02:23.996Z,99648.81
2023-12-31T11:05:31.693Z,99650.13
2023-12-31T11:08:38.309Z,99657.56
2023-12-31T11:11:41.325Z,99668.75
2023-12-31T11:14:57.112Z,99682.78
2023-12-31T11:18:34.734Z,99694.22
2023-12-31T11:21:58.574Z,99701.53
2023-12-31T11:25:04.744Z,99696.38
2023-12-31T11:28:08.723Z,99704.84
2023-12-31T11:31:12.184Z,99703.06
2023-12-31T11:34:15.422Z,99709.94
2023-12-31T11:37:18.703Z,99732.19
2023-12-31T11:40:23.695Z,99752.47
2023-12-31T11:43:36.822Z,99767.78
2023-12-31T11:46:41.704Z,99766.56
2023-12-31T11:49:48.377Z,99763.06
2023-12-31T11:52:51.955Z,99759.75
2023-12-31T11:56:00.738Z,99763.97
2023-12-31T11:59:04.667Z,99758.72
2023-12-31T12:02:09.146Z,99759.28
2023-12-31T12:05:12.629Z,99758.72
2023-12-31T12:08:17.304Z,99743.16
2023-12-31T12:11:25.528Z,99738.81
2023-12-31T12:14:28.808Z,99730.06
2023-12-31T12:17:32.200Z,99721.59
2023-12-31T12:20:38.079Z,99718.88
2023-12-31T12:23:41.569Z,99724.91
2023-12-31T12:26:48.246Z,99716.19
2023-12-31T12:29:51.567Z,99722.06
2023-12-31T12:32:55.654Z,99709.09
2023-12-31T12:35:59.319Z,99701.09
2023-12-31T12:39:03.957Z,99689.09
2023-12-31T12:42:10.068Z,99693.34
2023-12-31T12:45:13.137Z,99686.25
2023-12-31T12:48:18.272Z,99686.25
2023-12-31T12:51:21.679Z,99687.94
2023-12-31T12:54:26.421Z,99684.59
2023-12-31T12:57:31.024Z,99686.25
2023-12-31T13:00:36.515Z,99687.19
2023-12-31T13:03:59.643Z,99686.25
2023-12-31T13:07:02.873Z,99684.84
2023-12-31T13:10:07.015Z,99673.06
2023-12-31T13:13:11.803Z,99681.44
2023-12-31T13:16:22.002Z,99674.72
2023-12-31T13:19:27.320Z,99662.44
2023-12-31T13:22:32.854Z,99658.94
2023-12-31T13:25:38.667Z,99653.75
2023-12-31T13:28:43.595Z,99650.44
2023-12-31T13:31:47.342Z,99650.34
2023-12-31T13:34:50.567Z,99634.78
2023-12-31T13:37:54.784Z,99638.91
2023-12-31T13:40:58.263Z,99637.13
2023-12-31T13:44:02.750Z,99631.13
2023-12-31T13:47:06.183Z,99621.84
2023-12-31T13:50:10.038Z,99614.41
2023-12-31T13:53:14.918Z,99613.44
2023-12-31T13:56:18.303Z,99595.31
2023-12-31T13:59:22.626Z,99625.59
2023-12-31T14:02:26.259Z,99615.44
2023-12-31T14:05:29.419Z,99619.22
2023-12-31T14:08:32.501Z,99622.53
2023-12-31T14:11:35.503Z,99609.69
2023-12-31T14:14:39.800Z,99614.06
2023-12-31T14:17:42.840Z,99607.31
2023-12-31T14:20:45.973Z,99608.25
2023-12-31T14:23:50.156Z,99606.38
2023-12-31T14:26:53.714Z,99595.78
2023-12-31T14:29:58.042Z,99595.06
2023-12-31T14:33:01.306Z,99599.53
2023-12-31T14:36:21.637Z,99597.06
2023-12-31T14:39:24.648Z,99591.78
2023-12-31T14:42:27.745Z,99582.47
2023-12-31T14:45:32.062Z,99583.53
2023-12-31T14:48:36.410Z,99593.88
2023-12-31T14:51:40.089Z,99592.38
2023-12-31T14:54:43.190Z,99589.66
2023-12-31T14:57:46.458Z,99580.31
2023-12-31T15:00:54.904Z,99569.13
2023-12-31T15:03:58.632Z,99567.38
2023-12-31T15:07:03.742Z,99578.59
2023-12-31T15:10:09.295Z,99588.47
2023-12-31T15:13:15.397Z,99586.44
2023-12-31T15:16:20.177Z,99585.41
2023-12-31T15:19:24.093Z,99578.59
2023-12-31T15:22:29.508Z,99574.69
2023-12-31T15:25:52.215Z,99565.84
2023-12-31T15:29:05.017Z,99562.31
2023-12-31T15:32:13.942Z,99559.50
2023-12-31T15:35:17.232Z,99566.19
2023-12-31T15:38:23.322Z,99567.03
2023-12-31T15:41:28.135Z,99547.13
2023-12-31T15:44:31.222Z,99541.38
2023-12-31T15:47:40.044Z,99541.72
2023-12-31T15:50:43.310Z,99525.81
2023-12-31T15:53:46.356Z,99511.66
2023-12-31T15:56:49.886Z,99524.63
2023-12-31T16:00:03.481Z,99524.41
2023-12-31T16:03:17.217Z,99517.44
2023-12-31T16:06:20.370Z,99515.22
2023-12-31T16:09:23.454Z,99516.84
2023-12-31T16:12:26.766Z,99496.97
2023-12-31T16:15:29.749Z,99484.84
2023-12-31T16:18:34.144Z,99481.44
2023-12-31T16:21:38.525Z,99490.13
2023-12-31T16:24:41.666Z,99477.91
2023-12-31T16:27:44.969Z,99478.72
2023-12-31T16:30:48.114Z,99479.69
2023-12-31T16:33:52.628Z,99465.78
2023-12-31T16:36:55.666Z,99465.78
2023-12-31T16:39:58.657Z,99460.59
2023-12-31T16:43:05.521Z,99446.69
2023-12-31T16:46:08.733Z,99448.34
2023-12-31T16:49:16.229Z,99444.09
2023-12-31T16:52:20.651Z,99447.03
2023-12-31T16:55:23.734Z,99453.84
2023-12-31T16:58:26.904Z,99450.69
2023-12-31T17:01:30.818Z,99459.16
2023-12-31T17:04:35.470Z,99460.81
2023-12-31T17:07:38.570Z,99452.94
2023-12-31T17:10:41.592Z,99452.09
2023-12-31T17:13:45.134Z,99454.00
2023-12-31T17:16:48.546Z,99455.41
2023-12-31T17:19:52.995Z,99456.22
2023-12-31T17:22:57.621Z,99458.00
2023-12-31T17:26:00.794Z,99453.75
2023-12-31T17:29:05.693Z,99443.63
2023-12-31T17:32:09.756Z,99442.94
2023-12-31T17:35:14.338Z,99446.09
2023-12-31T17:38:19.331Z,99440.09
2023-12-31T17:41:22.334Z,99443.63
2023-12-31T17:44:25.851Z,99444.44
2023-12-31T17:47:28.912Z,99441.97
2023-12-31T17:50:33.267Z,99446.91
2023-12-31T17:53:36.249Z,99438.69
2023-12-31T17:56:40.907Z,99446.91
2023-12-31T17:59:44.097Z,99443.16
2023-12-31T18:02:47.062Z,99441.38
2023-12-31T18:05:51.574Z,99440.09
2023-12-31T18:08:54.644Z,99441.97
2023-12-31T18:11:58.666Z,99458.94
2023-12-31T18:15:02.018Z,99458.81
2023-12-31T18:18:05.944Z,99468.34
2023-12-31T18:21:10.402Z,99482.13
2023-12-31T18:24:15.225Z,99488.13
2023-12-31T18:27:19.602Z,99490.72
2023-12-31T18:30:26.607Z,99487.44
2023-12-31T18:33:35.043Z,99490.50
2023-12-31T18:36:42.428Z,99489.31
2023-12-31T18:39:45.476Z,99502.03
2023-12-31T18:42:48.528Z,99492.03
2023-12-31T18:45:51.536Z,99479.44
2023-12-31T18:48:54.681Z,99467.66
2023-12-31T18:51:59.352Z,99459.31
2023-12-31T18:55:04.368Z,99453.19
2023-12-31T18:58:07.719Z,99439.53
2023-12-31T19:01:10.934Z,99424.81
2023-12-31T19:04:16.845Z,99446.56
2023-12-31T19:07:21.256Z,99438.25
2023-12-31T19:10:24.763Z,99438.00
2023-12-31T19:13:27.759Z,99434.94
2023-12-31T19:16:31.089Z,99430.47
2023-12-31T19:19:35.969Z,99418.91
2023-12-31T19:22:40.983Z,99418.44
2023-12-31T19:25:44.245Z,99426.13
2023-12-31T19:28:50.419Z,99421.97
2023-12-31T19:31:53.498Z,99411.63
2023-12-31T19:34:56.863Z,99409.75
2023-12-31T19:38:01.303Z,99412.69
2023-12-31T19:41:04.460Z,99409.28
2023-12-31T19:44:23.009Z,99407.88
2023-12-31T19:47:30.507Z,99407.88
2023-12-31T19:50:34.079Z,99411.41
2023-12-31T19:53:38.577Z,99416.00
2023-12-31T19:56:41.658Z,99410.13
2023-12-31T19:59:44.702Z,99409.88
2023-12-31T20:02:47.714Z,99421.03
2023-12-31T20:05:50.838Z,99413.75
2023-12-31T20:08:55.256Z,99425.50
2023-12-31T20:11:58.313Z,99429.22
2023-12-31T20:15:01.392Z,99427.81
2023-12-31T20:18:04.777Z,99440.50
2023-12-31T20:21:10.317Z,99444.50
2023-12-31T20:24:16.494Z,99435.78
2023-12-31T20:27:21.955Z,99448.38
2023-12-31T20:30:25.027Z,99451.19
2023-12-31T20:33:28.406Z,99450.84
2023-12-31T20:36:32.756Z,99449.31
2023-12-31T20:39:37.089Z,99447.09
2023-12-31T20:42:59.201Z,99456.25
2023-12-31T20:51:20.287Z,99453.69
2023-12-31T20:54:36.954Z,99449.81
2023-12-31T20:57:41.413Z,99459.59
2023-12-31T21:00:44.779Z,99455.81
2023-12-31T21:03:47.844Z,99464.06
2023-12-31T21:06:50.848Z,99469.94
2023-12-31T21:09:53.869Z,99480.50
2023-12-31T21:12:58.303Z,99478.25
2023-12-31T21:16:03.594Z,99474.38
2023-12-31T21:19:08.961Z,99472.81
2023-12-31T21:22:12.013Z,99487.97
2023-12-31T21:25:15.023Z,99475.59
2023-12-31T21:28:20.102Z,99475.53
2023-12-31T21:31:24.106Z,99485.28
2023-12-31T21:34:30.555Z,99501.03
2023-12-31T21:37:34.507Z,99499.75
2023-12-31T21:40:37.531Z,99493.47
2023-12-31T21:43:42.215Z,99498.63
2023-12-31T21:46:46.052Z,99491.19
2023-12-31T21:49:51.814Z,99502.69
2023-12-31T21:52:56.804Z,99494.69
2023-12-31T21:56:14.271Z,99497.97
2023-12-31T21:59:24.042Z,99501.50
2023-12-31T22:02:27.066Z,99495.13
2023-12-31T22:05:32.015Z,99497.97
2023-12-31T22:08:35.044Z,99489.72
2023-12-31T22:11:38.286Z,99485.31
2023-12-31T22:14:42.643Z,99488.00
2023-12-31T22:17:45.694Z,99487.78
2023-12-31T22:20:49.119Z,99497.03
2023-12-31T22:23:52.854Z,99500.34
2023-12-31T22:26:55.906Z,99481.81
2023-12-31T22:30:00.662Z,99494.28
2023-12-31T22:33:03.820Z,99497.22
2023-12-31T22:36:07.939Z,99486.03
2023-12-31T22:39:11.012Z,99486.81
2023-12-31T22:42:14.032Z,99499.94
2023-12-31T22:45:20.637Z,99505.66
2023-12-31T22:48:24.030Z,99504.19
2023-12-31T22:51:27.095Z,99501.13
2023-12-31T22:54:32.996Z,99487.13
2023-12-31T22:57:36.047Z,99474.66
2023-12-31T23:00:40.567Z,99487.38
2023-12-31T23:03:43.818Z,99486.75
2023-12-31T23:06:55.644Z,99483.34
2023-12-31T23:09:58.818Z,99485.81
2023-12-31T23:13:01.853Z,99490.28
2023-12-31T23:16:08.477Z,99500.75
2023-12-31T23:19:14.709Z,99508.81
2023-12-31T23:22:17.817Z,99505.31
2023-12-31T23:25:20.956Z,99496.53
2023-12-31T23:28:24.286Z,99493.75
2023-12-31T23:31:34.881Z,99498.94
2023-12-31T23:34:38.050Z,99493.97
2023-12-31T23:37:41.404Z,99493.22
2023-12-31T23:40:44.482Z,99498.09
2023-12-31T23:43:55.974Z,99492.28
2023-12-31T23:47:07.277Z,99483.16
2023-12-31T23:50:13.510Z,99485.47
2023-12-31T23:53:16.713Z,99492.19
2023-12-31T23:56:19.756Z,99484.75
2023-12-31T23:59:22.760Z,99489.81
